Time;durP1;ratioP1;P1;durP2;ratioP2;P2;SDS_P1;SDS_P2;PMS_P1;PMS_P2;Temp;Humidity;BMP_temperature;BMP_pressure;BME280_temperature;BME280_humidity;BME280_pressure;Samples;Min_cycle;Max_cycle;Signal;HPM_P1;HPM_P2
2023/10/29 00:01:06;;;;;;;1.33;0.70;;;14.20;99.90;;;;;;5054358;28;20494;-60
2023/10/29 00:03:33;;;;;;;1.23;0.87;;;14.10;99.90;;;;;;5054020;28;20457;-60
2023/10/29 00:05:59;;;;;;;0.93;0.93;;;14.10;99.90;;;;;;5054425;28;20441;-60
2023/10/29 00:08:26;;;;;;;1.70;1.00;;;14.10;99.90;;;;;;5054155;28;20948;-60
2023/10/29 00:10:53;;;;;;;1.47;1.10;;;14.20;99.90;;;;;;5054420;28;20485;-61
2023/10/29 00:13:23;;;;;;;2.20;1.00;;;14.20;99.90;;;;;;5053265;28;20468;-60
2023/10/29 00:15:49;;;;;;;1.33;0.80;;;14.20;99.90;;;;;;5054496;28;20453;-60
2023/10/29 00:18:17;;;;;;;1.43;1.07;;;14.20;99.90;;;;;;5054250;28;20473;-60
2023/10/29 00:20:44;;;;;;;2.30;0.87;;;14.20;99.90;;;;;;5053989;28;20516;-60
2023/10/29 00:23:11;;;;;;;2.90;1.00;;;14.20;99.90;;;;;;5053571;28;21010;-60
2023/10/29 00:25:38;;;;;;;3.93;1.37;;;14.10;99.90;;;;;;5054136;28;20441;-60
2023/10/29 00:28:05;;;;;;;1.63;0.90;;;14.10;99.90;;;;;;5054086;28;20498;-60
2023/10/29 00:30:34;;;;;;;0.90;0.77;;;14.20;99.90;;;;;;5054012;28;20441;-61
2023/10/29 00:33:00;;;;;;;0.90;0.80;;;14.30;99.90;;;;;;5054503;28;20446;-60
2023/10/29 00:35:27;;;;;;;1.53;1.03;;;14.30;99.90;;;;;;5053973;28;20484;-60
2023/10/29 00:37:54;;;;;;;1.83;1.10;;;14.30;99.90;;;;;;5053920;28;20822;-60
2023/10/29 00:40:21;;;;;;;1.73;1.03;;;14.40;99.90;;;;;;5053707;28;20485;-60
2023/10/29 00:42:47;;;;;;;3.63;1.30;;;14.30;99.90;;;;;;5053641;28;20461;-60
2023/10/29 00:45:14;;;;;;;3.03;1.63;;;14.50;99.90;;;;;;5053902;28;20450;-60
2023/10/29 00:47:42;;;;;;;2.40;0.87;;;14.40;99.90;;;;;;5053793;28;20442;-60
2023/10/29 00:50:10;;;;;;;1.40;1.00;;;14.40;99.90;;;;;;5053369;28;20442;-60
2023/10/29 00:52:36;;;;;;;1.40;1.03;;;14.40;99.90;;;;;;5053384;28;20979;-60
2023/10/29 00:55:04;;;;;;;3.33;0.90;;;14.40;99.90;;;;;;5053873;28;20446;-60
2023/10/29 00:57:31;;;;;;;1.93;1.13;;;14.50;99.90;;;;;;5053793;28;20450;-60
2023/10/29 00:59:58;;;;;;;2.00;1.03;;;14.40;99.90;;;;;;5053248;28;20626;-61
2023/10/29 01:02:25;;;;;;;1.53;1.33;;;14.50;99.90;;;;;;5052411;28;20552;-60
2023/10/29 01:04:53;;;;;;;1.83;1.07;;;14.60;99.90;;;;;;5053067;28;20449;-60
2023/10/29 01:07:20;;;;;;;2.87;1.30;;;14.60;99.90;;;;;;5053294;28;20452;-60
2023/10/29 01:09:47;;;;;;;3.17;1.23;;;14.60;99.90;;;;;;5053226;28;20810;-60
2023/10/29 01:12:17;;;;;;;3.90;1.17;;;14.60;99.90;;;;;;5053261;28;20473;-60
2023/10/29 01:14:44;;;;;;;2.53;0.97;;;14.70;99.90;;;;;;5053199;28;20453;-60
2023/10/29 01:17:11;;;;;;;2.10;0.90;;;14.60;99.90;;;;;;5053324;28;20517;-61
2023/10/29 01:19:38;;;;;;;5.93;1.13;;;14.70;99.90;;;;;;5053071;28;20442;-60
2023/10/29 01:22:06;;;;;;;1.90;1.30;;;14.60;99.90;;;;;;5053142;28;20852;-60
2023/10/29 01:24:34;;;;;;;1.10;1.00;;;14.70;99.90;;;;;;5052462;28;20800;-60
2023/10/29 01:27:03;;;;;;;2.17;1.43;;;14.70;99.90;;;;;;5053212;28;20449;-60
2023/10/29 01:29:30;;;;;;;4.33;1.20;;;14.70;99.90;;;;;;5053233;28;20442;-59
2023/10/29 01:31:57;;;;;;;2.40;0.90;;;14.70;99.90;;;;;;5052908;28;20457;-58
2023/10/29 01:34:24;;;;;;;2.90;1.00;;;14.70;99.90;;;;;;5053115;28;20446;-58
2023/10/29 01:36:50;;;;;;;5.33;1.00;;;14.70;99.90;;;;;;5053030;28;20797;-59
2023/10/29 01:39:19;;;;;;;3.60;1.33;;;14.80;99.90;;;;;;5052974;28;20442;-59
2023/10/29 01:41:45;;;;;;;4.90;1.43;;;14.80;99.90;;;;;;5052931;28;20492;-60
2023/10/29 01:44:12;;;;;;;2.30;1.20;;;14.80;99.90;;;;;;5053002;28;20464;-60
2023/10/29 01:46:39;;;;;;;2.03;0.90;;;14.70;99.90;;;;;;5053050;28;20453;-60
2023/10/29 01:49:09;;;;;;;1.40;1.03;;;14.70;99.90;;;;;;5052812;28;20446;-60
2023/10/29 01:51:36;;;;;;;3.27;0.80;;;14.70;99.90;;;;;;5052992;28;20461;-59
2023/10/29 01:54:03;;;;;;;2.57;1.60;;;14.80;99.90;;;;;;5052993;28;20469;-59
2023/10/29 01:56:31;;;;;;;4.33;1.20;;;14.70;99.90;;;;;;5052897;28;20450;-59
2023/10/29 01:58:58;;;;;;;1.07;0.80;;;14.80;99.90;;;;;;5052752;28;20515;-60
2023/10/29 02:01:25;;;;;;;0.77;0.77;;;14.80;99.90;;;;;;5052712;28;20481;-58
2023/10/29 02:03:51;;;;;;;2.37;1.30;;;14.80;99.90;;;;;;5052749;28;20464;-58
2023/10/29 02:06:18;;;;;;;1.67;1.30;;;14.70;99.90;;;;;;5052837;28;20446;-59
2023/10/29 02:08:45;;;;;;;3.07;1.00;;;14.70;99.90;;;;;;5052772;28;20445;-59
2023/10/29 02:11:12;;;;;;;2.93;1.10;;;14.80;99.90;;;;;;5052503;28;20465;-59
2023/10/29 02:13:40;;;;;;;1.37;1.07;;;14.70;99.90;;;;;;5052756;28;20447;-59
2023/10/29 02:16:08;;;;;;;1.60;0.90;;;14.80;99.90;;;;;;5052820;28;20437;-59
2023/10/29 02:18:35;;;;;;;2.53;0.90;;;14.70;99.90;;;;;;5052753;28;20511;-60
2023/10/29 02:21:02;;;;;;;1.27;1.07;;;14.60;99.90;;;;;;5052581;28;20583;-60
2023/10/29 02:23:30;;;;;;;2.73;1.03;;;14.60;99.90;;;;;;5052513;28;20803;-59
2023/10/29 02:25:57;;;;;;;1.80;0.90;;;14.70;99.90;;;;;;5052349;28;20444;-60
2023/10/29 02:28:24;;;;;;;2.00;1.20;;;14.70;99.90;;;;;;5052640;28;20816;-60
2023/10/29 02:30:51;;;;;;;3.70;1.07;;;14.70;99.90;;;;;;5052571;28;20484;-60
2023/10/29 02:33:18;;;;;;;2.60;0.87;;;14.60;99.90;;;;;;5052594;28;20442;-60
2023/10/29 02:35:46;;;;;;;2.60;1.57;;;14.60;99.90;;;;;;5052599;28;20448;-60
2023/10/29 02:38:14;;;;;;;1.53;1.37;;;14.70;99.90;;;;;;5056160;28;20446;-61
2023/10/29 02:40:42;;;;;;;1.83;0.90;;;14.70;99.90;;;;;;5056017;28;20496;-60
2023/10/29 02:43:10;;;;;;;1.63;0.90;;;14.70;99.90;;;;;;5055823;28;20978;-60
2023/10/29 02:45:37;;;;;;;1.40;0.77;;;14.80;99.90;;;;;;5055999;28;20448;-60
2023/10/29 02:48:04;;;;;;;1.13;0.80;;;14.80;99.90;;;;;;5055993;28;20445;-60
2023/10/29 02:50:30;;;;;;;3.10;0.93;;;14.70;99.90;;;;;;5055350;28;20939;-60
2023/10/29 02:52:57;;;;;;;0.90;0.77;;;14.80;99.90;;;;;;5055883;28;20438;-61
2023/10/29 02:55:24;;;;;;;1.30;1.00;;;14.80;99.90;;;;;;5056182;28;20438;-60
2023/10/29 02:57:52;;;;;;;2.27;0.93;;;14.80;99.90;;;;;;5056290;28;20814;-60
2023/10/29 03:00:19;;;;;;;2.57;0.77;;;14.90;99.90;;;;;;5056032;28;20461;-60
2023/10/29 03:02:46;;;;;;;1.50;0.50;;;14.90;99.90;;;;;;5055798;28;20489;-60
2023/10/29 03:05:13;;;;;;;1.27;0.60;;;14.90;99.90;;;;;;5055666;28;20445;-60
2023/10/29 03:07:40;;;;;;;1.53;0.97;;;14.90;99.90;;;;;;5055855;28;20441;-60
2023/10/29 03:10:07;;;;;;;0.80;0.63;;;14.90;99.90;;;;;;5055590;28;20942;-60
2023/10/29 03:12:34;;;;;;;1.00;0.80;;;14.80;99.90;;;;;;5055535;28;20469;-60
2023/10/29 03:15:02;;;;;;;2.53;1.00;;;14.80;99.90;;;;;;5055113;28;20927;-60
2023/10/29 03:17:29;;;;;;;1.87;0.80;;;14.80;99.90;;;;;;5055544;28;20445;-60
2023/10/29 03:19:56;;;;;;;2.73;0.70;;;14.80;99.90;;;;;;5055516;28;20445;-60
2023/10/29 03:22:22;;;;;;;0.80;0.57;;;14.80;99.90;;;;;;5054932;28;21076;-60
2023/10/29 03:24:49;;;;;;;0.60;0.60;;;14.90;99.90;;;;;;5055316;28;20525;-60
2023/10/29 03:27:16;;;;;;;1.47;0.70;;;14.80;99.90;;;;;;5055231;28;20478;-60
2023/10/29 03:29:43;;;;;;;2.10;0.60;;;14.90;99.90;;;;;;5061511;28;20445;-60
2023/10/29 03:32:11;;;;;;;2.00;0.80;;;14.90;99.90;;;;;;5063617;28;20492;-60
2023/10/29 03:34:37;;;;;;;0.73;0.57;;;14.90;99.90;;;;;;5055131;28;20438;-60
2023/10/29 03:37:05;;;;;;;1.60;0.53;;;14.90;99.90;;;;;;5054664;28;20986;-60
2023/10/29 03:39:31;;;;;;;0.77;0.50;;;14.90;99.90;;;;;;5054905;28;20536;-60
2023/10/29 03:41:58;;;;;;;3.23;0.70;;;15.00;99.90;;;;;;5054721;28;20485;-60
2023/10/29 03:44:25;;;;;;;2.73;0.70;;;15.00;99.90;;;;;;5054964;28;20468;-60
2023/10/29 03:46:52;;;;;;;0.50;0.40;;;15.00;99.90;;;;;;5054684;28;20438;-60
2023/10/29 03:49:20;;;;;;;1.93;0.60;;;15.00;99.90;;;;;;5054899;28;20448;-60
2023/10/29 03:51:48;;;;;;;0.60;0.57;;;15.10;99.90;;;;;;5054829;28;20476;-60
2023/10/29 03:54:15;;;;;;;1.80;0.60;;;15.10;99.90;;;;;;5054764;28;20453;-60
2023/10/29 03:56:42;;;;;;;1.07;0.70;;;15.10;99.90;;;;;;5054261;28;20445;-60
2023/10/29 03:59:09;;;;;;;0.97;0.77;;;15.10;99.90;;;;;;5054391;28;20450;-60
2023/10/29 04:01:36;;;;;;;0.47;0.40;;;15.20;99.90;;;;;;5054499;28;20507;-60
2023/10/29 04:04:03;;;;;;;2.10;0.80;;;15.20;99.90;;;;;;5054233;28;20453;-60
2023/10/29 04:06:32;;;;;;;1.00;0.80;;;15.20;99.90;;;;;;5054518;28;20928;-60
2023/10/29 04:08:59;;;;;;;1.93;1.00;;;15.10;99.90;;;;;;5055269;28;20454;-60
2023/10/29 04:11:25;;;;;;;1.10;1.00;;;15.20;99.90;;;;;;5054398;28;20461;-60
2023/10/29 04:13:52;;;;;;;4.67;0.80;;;15.20;99.90;;;;;;5054376;28;20446;-60
2023/10/29 04:16:19;;;;;;;1.07;0.60;;;15.20;99.90;;;;;;5054099;28;20823;-60
2023/10/29 04:18:46;;;;;;;1.87;0.60;;;15.20;99.90;;;;;;5054318;28;20457;-60
2023/10/29 04:21:12;;;;;;;0.97;0.60;;;15.30;99.90;;;;;;5054089;28;20517;-60
2023/10/29 04:23:41;;;;;;;1.20;0.80;;;15.30;99.90;;;;;;5054426;28;20468;-60
2023/10/29 04:26:07;;;;;;;2.40;0.90;;;15.30;99.90;;;;;;5054187;28;20442;-60
2023/10/29 04:28:34;;;;;;;1.47;0.77;;;15.30;99.90;;;;;;5054125;28;20457;-60
2023/10/29 04:31:01;;;;;;;3.10;1.20;;;15.30;99.90;;;;;;5053686;28;20461;-60
2023/10/29 04:33:28;;;;;;;1.43;0.70;;;15.40;99.90;;;;;;5053877;28;20453;-60
2023/10/29 04:35:55;;;;;;;2.03;0.60;;;15.40;99.90;;;;;;5053820;28;20454;-61
2023/10/29 04:38:21;;;;;;;2.53;0.57;;;15.40;99.70;;;;;;5053560;28;20442;-60
2023/10/29 04:40:51;;;;;;;1.17;0.80;;;15.40;99.80;;;;;;5053890;28;20480;-60
2023/10/29 04:43:17;;;;;;;1.00;0.50;;;15.40;99.70;;;;;;5053814;28;20512;-60
2023/10/29 04:45:44;;;;;;;2.17;0.90;;;15.30;99.50;;;;;;5053429;28;20940;-60
2023/10/29 04:48:11;;;;;;;1.90;0.70;;;15.30;99.40;;;;;;5053838;28;20442;-60
2023/10/29 04:50:38;;;;;;;1.13;0.87;;;15.20;99.40;;;;;;5053684;28;20445;-60
2023/10/29 04:53:04;;;;;;;0.90;0.70;;;15.30;99.40;;;;;;5053856;28;20434;-60
2023/10/29 04:55:31;;;;;;;1.17;0.70;;;15.30;99.50;;;;;;5053596;28;20449;-60
2023/10/29 04:57:59;;;;;;;2.17;0.97;;;15.20;99.40;;;;;;5053719;28;20503;-60
2023/10/29 05:00:26;;;;;;;1.00;0.60;;;15.30;99.40;;;;;;5052670;28;20453;-60
2023/10/29 05:02:53;;;;;;;3.57;0.87;;;15.30;99.20;;;;;;5053354;28;20477;-60
2023/10/29 05:05:19;;;;;;;2.60;0.70;;;15.30;99.10;;;;;;5053577;28;20771;-60
2023/10/29 05:07:46;;;;;;;1.80;0.80;;;15.30;99.30;;;;;;5053009;28;20958;-61
2023/10/29 05:10:14;;;;;;;0.93;0.47;;;15.30;99.20;;;;;;5053439;28;20532;-60
2023/10/29 05:12:41;;;;;;;2.07;0.83;;;15.40;99.00;;;;;;5053393;28;20454;-60
2023/10/29 05:15:12;;;;;;;2.03;0.80;;;15.40;98.70;;;;;;5053312;28;20437;-61
2023/10/29 05:17:40;;;;;;;7.17;1.10;;;15.40;98.90;;;;;;5053421;28;20433;-60
2023/10/29 05:20:10;;;;;;;1.40;0.53;;;15.40;99.00;;;;;;5053333;28;20446;-60
2023/10/29 05:22:37;;;;;;;1.27;0.60;;;15.40;99.20;;;;;;5053212;28;20485;-60
2023/10/29 05:25:04;;;;;;;2.67;1.00;;;15.40;98.80;;;;;;5053529;28;20444;-61
2023/10/29 05:27:31;;;;;;;2.57;0.80;;;15.40;98.50;;;;;;5053138;28;20960;-60
2023/10/29 05:29:59;;;;;;;3.30;0.70;;;15.40;98.80;;;;;;5053088;28;20791;-60
2023/10/29 05:32:28;;;;;;;2.10;1.23;;;15.30;98.60;;;;;;5053414;28;20465;-61
2023/10/29 05:34:55;;;;;;;2.10;0.80;;;15.30;98.60;;;;;;5053360;28;20532;-61
2023/10/29 05:37:23;;;;;;;5.33;0.90;;;15.30;98.80;;;;;;5052812;28;20437;-60
2023/10/29 05:39:51;;;;;;;2.60;0.90;;;15.40;98.80;;;;;;5053268;28;20452;-60
2023/10/29 05:42:18;;;;;;;2.07;0.90;;;15.40;98.80;;;;;;5052865;28;21002;-60
2023/10/29 05:44:45;;;;;;;1.37;0.67;;;15.40;98.70;;;;;;5052746;28;20441;-60
2023/10/29 05:47:11;;;;;;;1.53;0.70;;;15.40;98.70;;;;;;5052985;28;20438;-60
2023/10/29 05:49:40;;;;;;;3.67;0.70;;;15.40;98.70;;;;;;5052973;28;20445;-60
2023/10/29 05:52:07;;;;;;;4.00;1.27;;;15.40;98.70;;;;;;5052715;28;20466;-60
2023/10/29 05:54:34;;;;;;;3.00;1.10;;;15.40;98.90;;;;;;5053000;28;20449;-60
2023/10/29 05:57:00;;;;;;;2.40;0.60;;;15.40;98.80;;;;;;5052849;28;20839;-60
2023/10/29 05:59:28;;;;;;;2.93;0.93;;;15.30;98.80;;;;;;5052702;28;20448;-60
2023/10/29 06:01:54;;;;;;;4.20;1.10;;;15.30;99.00;;;;;;5052750;28;20484;-60
2023/10/29 06:04:21;;;;;;;4.53;0.70;;;15.30;99.10;;;;;;5052551;28;20840;-60
2023/10/29 06:06:49;;;;;;;1.80;0.77;;;15.20;99.10;;;;;;5052850;28;20453;-60
2023/10/29 06:09:16;;;;;;;2.47;1.20;;;15.20;99.30;;;;;;5052599;28;20450;-60
2023/10/29 06:11:43;;;;;;;4.10;1.70;;;15.10;99.10;;;;;;5056240;28;20472;-60
2023/10/29 06:14:09;;;;;;;5.27;1.10;;;15.20;99.30;;;;;;5057453;28;20831;-60
2023/10/29 06:16:37;;;;;;;5.43;1.10;;;15.20;98.90;;;;;;5056556;28;20453;-60
2023/10/29 06:19:04;;;;;;;5.70;0.90;;;15.10;98.80;;;;;;5057082;28;20812;-60
2023/10/29 06:21:30;;;;;;;2.57;1.23;;;15.10;98.90;;;;;;5056731;28;20465;-60
2023/10/29 06:23:59;;;;;;;3.90;1.13;;;15.10;99.00;;;;;;5057133;28;20441;-60
2023/10/29 06:26:25;;;;;;;2.70;0.70;;;15.20;98.90;;;;;;5056483;28;20989;-60
2023/10/29 06:28:52;;;;;;;1.90;0.70;;;15.20;98.60;;;;;;5056815;28;20446;-60
2023/10/29 06:31:19;;;;;;;3.17;1.20;;;15.20;98.80;;;;;;5056655;28;20461;-60
2023/10/29 06:33:45;;;;;;;2.63;1.13;;;15.20;98.80;;;;;;5056593;28;20440;-60
2023/10/29 06:36:12;;;;;;;3.70;1.40;;;15.20;98.70;;;;;;5056331;28;20441;-60
2023/10/29 06:38:39;;;;;;;2.93;0.80;;;15.20;98.80;;;;;;5056469;28;20441;-60
2023/10/29 06:41:07;;;;;;;5.07;1.10;;;15.20;98.80;;;;;;5056438;28;20477;-61
2023/10/29 06:43:35;;;;;;;5.17;1.00;;;15.20;98.90;;;;;;5056107;28;20485;-61
2023/10/29 06:46:02;;;;;;;3.07;0.90;;;15.20;98.80;;;;;;5056074;28;20441;-60
2023/10/29 06:48:28;;;;;;;4.37;1.23;;;15.20;98.70;;;;;;5055751;28;20815;-60
2023/10/29 06:50:55;;;;;;;3.13;0.87;;;15.20;98.60;;;;;;5056540;28;20466;-60
2023/10/29 06:53:22;;;;;;;5.37;1.20;;;15.10;98.30;;;;;;5055665;28;20611;-60
2023/10/29 06:55:49;;;;;;;2.30;1.00;;;15.20;98.40;;;;;;5055738;28;20827;-60
2023/10/29 06:58:17;;;;;;;2.50;0.90;;;15.20;98.50;;;;;;5055474;28;20952;-60
2023/10/29 07:00:44;;;;;;;5.10;1.30;;;15.20;98.40;;;;;;5055532;28;20469;-60
2023/10/29 07:03:11;;;;;;;2.20;0.90;;;15.10;98.10;;;;;;5055574;28;20504;-60
2023/10/29 07:05:37;;;;;;;5.13;1.10;;;15.10;98.00;;;;;;5055683;28;20426;-60
2023/10/29 07:08:04;;;;;;;2.27;0.80;;;15.10;98.60;;;;;;5055257;28;20955;-60
2023/10/29 07:10:31;;;;;;;5.60;1.00;;;15.10;98.10;;;;;;5055617;28;20458;-60
2023/10/29 07:12:58;;;;;;;3.37;1.00;;;15.10;98.10;;;;;;5055443;28;20442;-60
2023/10/29 07:15:27;;;;;;;2.97;1.17;;;15.10;98.20;;;;;;5055486;28;20450;-60
2023/10/29 07:17:53;;;;;;;3.07;0.90;;;15.10;98.00;;;;;;5055176;28;20472;-60
2023/10/29 07:20:20;;;;;;;4.70;1.07;;;15.10;98.10;;;;;;5055355;28;20811;-60
2023/10/29 07:22:47;;;;;;;3.47;1.00;;;15.10;98.00;;;;;;5055207;28;20480;-60
2023/10/29 07:25:14;;;;;;;4.90;1.10;;;15.10;98.00;;;;;;5055283;28;20456;-60
2023/10/29 07:27:40;;;;;;;4.27;1.33;;;15.10;97.90;;;;;;5055333;28;20453;-60
2023/10/29 07:30:09;;;;;;;3.83;1.00;;;15.10;98.10;;;;;;5055191;28;20460;-60
2023/10/29 07:32:37;;;;;;;3.57;1.00;;;15.10;98.00;;;;;;5055024;28;20461;-60
2023/10/29 07:35:05;;;;;;;6.70;1.03;;;15.10;97.60;;;;;;5054876;28;20442;-60
2023/10/29 07:37:31;;;;;;;3.03;1.33;;;15.10;97.70;;;;;;5054889;28;20457;-60
2023/10/29 07:39:58;;;;;;;6.03;1.20;;;15.10;97.60;;;;;;5055013;28;20441;-60
2023/10/29 07:42:25;;;;;;;6.17;1.00;;;15.10;97.80;;;;;;5054791;28;20481;-60
2023/10/29 07:44:53;;;;;;;3.90;0.90;;;15.00;97.70;;;;;;5054883;28;20495;-60
2023/10/29 07:47:20;;;;;;;3.50;0.77;;;15.10;97.80;;;;;;5054871;28;20441;-60
2023/10/29 07:49:48;;;;;;;5.43;1.00;;;15.00;97.90;;;;;;5054779;28;20529;-60
2023/10/29 07:52:15;;;;;;;3.73;1.23;;;15.00;98.00;;;;;;5054742;28;20800;-60
2023/10/29 07:54:42;;;;;;;2.27;0.80;;;15.00;98.00;;;;;;5054700;28;20511;-60
2023/10/29 07:57:09;;;;;;;5.93;1.40;;;15.00;98.10;;;;;;5054403;28;20454;-60
2023/10/29 07:59:36;;;;;;;6.03;1.17;;;15.00;97.70;;;;;;5062349;28;20452;-60
2023/10/29 08:02:02;;;;;;;7.13;1.23;;;15.00;97.60;;;;;;5074376;28;20476;-60
2023/10/29 08:04:30;;;;;;;2.73;0.80;;;15.00;97.60;;;;;;5064776;28;21029;-60
2023/10/29 08:06:58;;;;;;;3.67;1.47;;;15.00;97.50;;;;;;5054161;28;20445;-60
2023/10/29 08:09:24;;;;;;;5.93;1.70;;;15.10;97.90;;;;;;5054136;28;20958;-60
2023/10/29 08:11:51;;;;;;;3.87;3.10;;;15.00;97.50;;;;;;5054286;28;20478;-60
2023/10/29 08:14:18;;;;;;;4.63;2.03;;;15.00;97.50;;;;;;5054425;28;20449;-60
2023/10/29 08:16:45;;;;;;;9.30;3.50;;;15.10;97.50;;;;;;5054022;28;20441;-60
2023/10/29 08:19:11;;;;;;;8.40;4.50;;;15.10;97.20;;;;;;5054432;28;20449;-60
2023/10/29 08:21:38;;;;;;;7.27;3.40;;;15.20;97.20;;;;;;5054281;28;20469;-60
2023/10/29 08:24:07;;;;;;;4.33;1.50;;;15.20;96.80;;;;;;5053915;28;20557;-60
2023/10/29 08:26:34;;;;;;;3.83;1.40;;;15.20;96.60;;;;;;5054152;28;20441;-60
2023/10/29 08:29:00;;;;;;;3.90;1.90;;;15.30;96.40;;;;;;5053798;28;20430;-60
2023/10/29 08:31:27;;;;;;;8.20;5.00;;;15.30;96.10;;;;;;5053611;28;20975;-60
2023/10/29 08:33:55;;;;;;;5.33;3.10;;;15.40;96.10;;;;;;5052764;28;20974;-60
2023/10/29 08:36:21;;;;;;;3.70;2.17;;;15.40;95.70;;;;;;5053944;28;20453;-60
2023/10/29 08:38:48;;;;;;;6.73;3.10;;;15.50;95.70;;;;;;5053793;28;20442;-60
2023/10/29 08:41:17;;;;;;;13.20;6.07;;;15.50;95.20;;;;;;5053554;28;20843;-60
2023/10/29 08:43:44;;;;;;;4.97;2.73;;;15.60;95.40;;;;;;5053430;28;21048;-60
2023/10/29 08:46:11;;;;;;;4.40;2.30;;;15.60;95.30;;;;;;5053766;28;20442;-60
2023/10/29 08:48:38;;;;;;;8.47;2.77;;;15.70;95.20;;;;;;5053699;28;20808;-60
2023/10/29 08:51:06;;;;;;;6.90;2.93;;;15.70;95.20;;;;;;5053721;28;20564;-60
2023/10/29 08:53:33;;;;;;;4.70;3.50;;;15.80;95.00;;;;;;5053297;28;20444;-60
2023/10/29 08:56:00;;;;;;;4.20;3.57;;;15.80;95.10;;;;;;5053634;28;20449;-60
2023/10/29 08:58:28;;;;;;;5.00;3.20;;;15.80;95.00;;;;;;5053372;28;20438;-60
2023/10/29 09:00:57;;;;;;;4.13;2.00;;;15.90;95.10;;;;;;5053311;28;20485;-60
2023/10/29 09:03:24;;;;;;;6.40;1.60;;;15.90;94.90;;;;;;5053126;28;20588;-60
2023/10/29 09:05:51;;;;;;;4.73;1.97;;;15.90;94.80;;;;;;5053416;28;20496;-60
2023/10/29 09:08:18;;;;;;;2.50;0.97;;;16.00;95.10;;;;;;5053416;28;20823;-60
2023/10/29 09:10:45;;;;;;;7.30;2.40;;;16.00;95.00;;;;;;5053296;28;20465;-61
2023/10/29 09:13:12;;;;;;;3.90;1.20;;;16.00;94.80;;;;;;5053341;28;20437;-58
2023/10/29 09:15:41;;;;;;;0.90;0.80;;;16.10;94.80;;;;;;5053557;28;20456;-59
2023/10/29 09:18:08;;;;;;;4.00;1.00;;;16.20;94.70;;;;;;5053761;28;20540;-61
2023/10/29 09:20:36;;;;;;;2.60;1.17;;;16.20;93.90;;;;;;5053992;28;20445;-62
2023/10/29 09:23:02;;;;;;;2.73;1.93;;;16.10;94.30;;;;;;5054022;28;20562;-62
2023/10/29 09:25:29;;;;;;;2.00;0.70;;;16.10;94.30;;;;;;5053558;28;20954;-61
2023/10/29 09:27:58;;;;;;;4.97;1.67;;;16.00;94.50;;;;;;5053610;28;20450;-59
2023/10/29 09:30:24;;;;;;;3.00;2.57;;;16.10;94.50;;;;;;5053363;28;20457;-59
2023/10/29 09:32:52;;;;;;;2.07;1.90;;;16.00;94.50;;;;;;5053164;28;20438;-59
2023/10/29 09:35:19;;;;;;;1.50;0.93;;;16.10;94.40;;;;;;5053298;28;20445;-59
2023/10/29 09:37:46;;;;;;;2.17;0.73;;;16.20;94.20;;;;;;5053044;28;20445;-59
2023/10/29 09:40:15;;;;;;;3.33;1.10;;;16.20;94.10;;;;;;5053181;28;20448;-58
2023/10/29 09:42:53;;;;;;;1.87;1.20;;;16.20;93.80;;;;;;5053073;28;20458;-59
2023/10/29 09:45:23;;;;;;;3.40;2.37;;;16.20;93.80;;;;;;5054316;28;20439;-58
2023/10/29 09:47:50;;;;;;;2.60;1.73;;;16.20;93.50;;;;;;5057190;28;20438;-59
2023/10/29 09:50:18;;;;;;;2.33;1.07;;;16.30;93.60;;;;;;5056953;28;20464;-59
2023/10/29 09:52:46;;;;;;;5.20;1.07;;;16.40;93.40;;;;;;5056870;28;21003;-59
2023/10/29 09:55:14;;;;;;;1.80;1.07;;;16.60;93.50;;;;;;5056990;28;20449;-59
2023/10/29 09:57:41;;;;;;;1.80;1.17;;;16.80;93.00;;;;;;5056795;28;20448;-59
2023/10/29 10:00:10;;;;;;;4.17;1.17;;;16.90;92.50;;;;;;5056983;28;20869;-59
2023/10/29 10:02:50;;;;;;;1.17;0.80;;;17.10;92.50;;;;;;5056805;28;20607;-59
2023/10/29 10:05:20;;;;;;;2.33;1.27;;;17.20;92.50;;;;;;5056844;28;20791;-59
2023/10/29 10:07:47;;;;;;;2.60;1.00;;;17.20;91.90;;;;;;5056799;28;20445;-59
2023/10/29 10:10:14;;;;;;;4.50;1.30;;;17.30;91.30;;;;;;5056742;28;20441;-59
2023/10/29 10:12:47;;;;;;;7.80;1.97;;;17.30;91.10;;;;;;5056648;28;20480;-58
2023/10/29 10:15:14;;;;;;;3.20;1.00;;;17.40;91.00;;;;;;5056835;28;20426;-59
2023/10/29 10:17:48;;;;;;;2.73;1.50;;;17.50;90.50;;;;;;5056434;28;20496;-59
2023/10/29 10:20:14;;;;;;;5.07;0.80;;;17.60;90.30;;;;;;5056296;28;20891;-59
2023/10/29 10:22:43;;;;;;;4.43;0.80;;;17.50;90.10;;;;;;5056183;28;20985;-59
2023/10/29 10:25:17;;;;;;;3.50;1.07;;;17.40;89.30;;;;;;5056419;28;20470;-59
2023/10/29 10:27:51;;;;;;;4.77;1.80;;;17.40;90.10;;;;;;5057265;28;20444;-59
2023/10/29 10:30:31;;;;;;;2.67;0.80;;;17.40;90.50;;;;;;5056491;28;20477;-59
2023/10/29 10:33:10;;;;;;;2.40;1.00;;;17.60;90.30;;;;;;5056425;28;20477;-59
2023/10/29 10:35:41;;;;;;;4.37;1.07;;;17.80;88.30;;;;;;5056246;28;20441;-59
2023/10/29 10:38:10;;;;;;;2.40;0.70;;;18.00;88.20;;;;;;5056097;28;20468;-59
2023/10/29 10:40:37;;;;;;;4.87;1.23;;;18.20;87.70;;;;;;5057971;28;20446;-59
2023/10/29 10:43:04;;;;;;;2.30;1.20;;;18.60;86.90;;;;;;5055813;28;20450;-59
2023/10/29 10:45:33;;;;;;;4.83;0.80;;;18.70;85.00;;;;;;5074134;28;20452;-59
2023/10/29 10:48:03;;;;;;;5.70;1.20;;;18.90;82.60;;;;;;5075594;28;20456;-60
2023/10/29 10:50:31;;;;;;;3.70;1.30;;;19.10;82.30;;;;;;5076110;28;20433;-60
2023/10/29 10:52:59;;;;;;;4.90;1.00;;;19.20;80.70;;;;;;5075952;28;20527;-60
2023/10/29 10:55:29;;;;;;;3.87;1.27;;;19.10;80.50;;;;;;5075904;28;20440;-60
2023/10/29 10:57:57;;;;;;;2.37;1.00;;;19.10;80.40;;;;;;5074544;28;20514;-60
2023/10/29 11:00:24;;;;;;;3.10;1.10;;;19.30;81.10;;;;;;5075966;28;20452;-60
2023/10/29 11:02:54;;;;;;;4.20;1.43;;;19.60;79.90;;;;;;5075375;28;20992;-60
2023/10/29 11:05:21;;;;;;;2.40;1.00;;;19.90;79.20;;;;;;5075639;28;20534;-60
2023/10/29 11:07:48;;;;;;;2.87;1.07;;;20.00;76.20;;;;;;5075698;28;20444;-60
2023/10/29 11:10:17;;;;;;;1.63;0.80;;;20.00;74.20;;;;;;5075257;28;21044;-60
2023/10/29 11:12:46;;;;;;;2.20;0.83;;;19.70;73.50;;;;;;5075097;28;20469;-58
2023/10/29 11:15:14;;;;;;;3.20;1.17;;;19.80;74.40;;;;;;5075524;28;20433;-57
2023/10/29 11:17:51;;;;;;;1.63;0.90;;;20.10;74.30;;;;;;5075324;28;20445;-60
2023/10/29 11:20:52;;;;;;;2.92;1.10;;;20.40;72.10;;;;;;5074311;28;20461;-58
2023/10/29 11:23:24;;;;;;;4.20;1.37;;;20.50;70.90;;;;;;5075225;28;20198;-60
2023/10/29 11:25:51;;;;;;;1.50;1.00;;;20.00;71.80;;;;;;5075045;28;20436;-58
2023/10/29 11:28:45;;;;;;;3.97;1.10;;;19.80;72.70;;;;;;5075295;28;20445;-58
2023/10/29 11:31:16;;;;;;;2.37;1.40;;;19.40;74.40;;;;;;5074820;28;20970;-58
2023/10/29 11:33:43;;;;;;;4.60;2.90;;;19.20;75.90;;;;;;5075117;28;20440;-58
2023/10/29 11:36:30;;;;;;;2.77;2.07;;;18.90;76.80;;;;;;5075143;28;20444;-58
2023/10/29 11:39:22;;;;;;;2.93;0.90;;;18.50;79.00;;;;;;5074635;28;20441;-58
2023/10/29 11:41:51;;;;;;;6.40;1.30;;;18.30;81.20;;;;;;5073811;28;20460;-58
2023/10/29 11:44:27;;;;;;;3.23;0.80;;;18.10;82.00;;;;;;5074848;28;20275;-57
2023/10/29 11:47:07;;;;;;;5.13;1.33;;;17.80;85.40;;;;;;5074978;28;20437;-56
2023/10/29 11:50:12;;;;;;;2.67;0.73;;;17.60;89.40;;;;;;5074913;28;20502;-56
2023/10/29 11:52:43;;;;;;;1.30;0.90;;;17.20;91.60;;;;;;5074547;28;20472;-57
2023/10/29 11:55:12;;;;;;;1.17;0.60;;;16.90;93.10;;;;;;5074764;28;20923;-58
2023/10/29 11:57:41;;;;;;;1.13;1.00;;;16.80;93.60;;;;;;5074704;28;20445;-59
2023/10/29 12:00:10;;;;;;;1.87;0.80;;;16.70;94.30;;;;;;5074478;28;20436;-57
2023/10/29 12:02:37;;;;;;;1.80;0.90;;;16.60;95.10;;;;;;5074535;28;20453;-58
2023/10/29 12:05:09;;;;;;;4.87;0.70;;;16.50;95.40;;;;;;5074106;28;20488;-58
2023/10/29 12:07:36;;;;;;;3.63;0.83;;;16.40;95.80;;;;;;5074214;28;20440;-58
2023/10/29 12:10:06;;;;;;;2.20;0.50;;;16.30;95.80;;;;;;5074350;28;20437;-58
2023/10/29 12:12:33;;;;;;;1.67;0.60;;;16.30;96.40;;;;;;5074426;28;20522;-58
2023/10/29 12:15:01;;;;;;;0.70;0.50;;;16.20;97.00;;;;;;5064708;28;20434;-57
2023/10/29 12:17:29;;;;;;;0.90;0.60;;;16.10;97.30;;;;;;5054117;28;20575;-57
2023/10/29 12:19:56;;;;;;;3.50;0.77;;;16.00;97.40;;;;;;5054187;28;20481;-57
2023/10/29 12:22:24;;;;;;;3.43;1.60;;;15.90;98.20;;;;;;5053940;28;20492;-57
2023/10/29 12:24:53;;;;;;;1.23;0.80;;;15.90;99.00;;;;;;5054417;28;20477;-57
2023/10/29 12:27:21;;;;;;;1.50;1.20;;;16.00;99.10;;;;;;5054267;28;20441;-58
2023/10/29 12:29:48;;;;;;;2.43;1.70;;;16.20;99.00;;;;;;5053791;28;20452;-58
2023/10/29 12:32:19;;;;;;;1.30;0.70;;;16.50;98.60;;;;;;5053912;28;20457;-58
2023/10/29 12:34:49;;;;;;;3.47;1.70;;;16.60;97.40;;;;;;5054043;28;20437;-58
2023/10/29 12:37:23;;;;;;;2.57;1.00;;;16.80;97.00;;;;;;5055003;28;20559;-58
2023/10/29 12:39:52;;;;;;;1.37;0.60;;;16.90;96.10;;;;;;5053810;28;20424;-58
2023/10/29 12:42:21;;;;;;;4.53;0.83;;;16.90;95.90;;;;;;5054026;28;20469;-58
2023/10/29 12:44:55;;;;;;;3.90;0.80;;;16.80;95.50;;;;;;5053889;28;20513;-58
2023/10/29 12:47:22;;;;;;;3.63;1.80;;;16.80;95.50;;;;;;5053786;28;20970;-58
2023/10/29 12:50:03;;;;;;;2.00;0.80;;;16.70;95.70;;;;;;5053908;28;20453;-58
2023/10/29 12:52:30;;;;;;;2.40;0.90;;;16.60;95.60;;;;;;5053728;28;20499;-58